Amantha, North Carolina
Current Conditions -  °F | °C
As of 9:35 PM on Wednesday 17 Dec 2014 (Local Time) from KTNB Reporting Station
Scattered Clouds Scattered Clouds  
Wind Chill: -4°   Ceiling: Unl
Heat Index:   Visibility: 10mi
Dew Point: -2°   Wind: 10mph
Humidity: 79%   Direction: 300°WNW
Pressure: 30.09"   Gusts: 26mph
Location:  36.2666°N, 81.8431°W
Report Text: KTNB 180235Z AUTO 30009G23KT 260V320 10SM SCT014 01/M02 A3009 RMK AO2 T00091023
Loading
Personal Weather Stations






























Interactive Weather Map New forecast layout! Learn more

10-Day Weather Forecast

Advertisements
Track Severe Weather on mobile